createdAt,value
2019-03-23T00:01:22.344Z,13.20
2019-03-23T00:03:52.984Z,12.20
2019-03-23T00:06:30.720Z,11.20
2019-03-23T00:08:55.883Z,13.80
2019-03-23T00:11:26.349Z,15.20
2019-03-23T00:13:57.124Z,12.60
2019-03-23T00:16:27.496Z,15.00
2019-03-23T00:18:57.900Z,11.60
2019-03-23T00:21:28.170Z,16.60
2019-03-23T00:23:58.395Z,14.20
2019-03-23T00:26:28.536Z,13.40
2019-03-23T00:29:00.357Z,9.00
2019-03-23T00:31:30.518Z,15.40
2019-03-23T00:34:00.847Z,15.40
2019-03-23T00:36:41.074Z,12.40
2019-03-23T00:39:04.765Z,12.60
2019-03-23T00:41:35.223Z,14.00
2019-03-23T00:44:07.417Z,6.00
2019-03-23T00:46:37.204Z,16.40
2019-03-23T00:49:07.283Z,14.00
2019-03-23T00:51:37.367Z,12.80
2019-03-23T00:54:07.713Z,12.40
2019-03-23T00:56:37.807Z,13.40
2019-03-23T00:59:08.183Z,10.80
2019-03-23T01:01:38.550Z,14.60
2019-03-23T01:04:09.165Z,14.20
2019-03-23T01:06:39.594Z,14.60
2019-03-23T01:09:10.294Z,13.00
2019-03-23T01:11:40.651Z,14.40
2019-03-23T01:14:11.245Z,12.40
2019-03-23T01:16:41.644Z,12.20
2019-03-23T01:19:11.829Z,14.20
2019-03-23T01:21:42.117Z,19.20
2019-03-23T01:24:12.303Z,19.00
2019-03-23T01:26:42.522Z,15.40
2019-03-23T01:29:13.025Z,19.00
2019-03-23T01:31:43.401Z,10.40
2019-03-23T01:34:13.754Z,18.60
2019-03-23T01:36:43.879Z,10.80
2019-03-23T01:39:14.140Z,11.20
2019-03-23T01:41:45.042Z,12.40
2019-03-23T01:44:15.381Z,21.00
2019-03-23T01:46:46.548Z,18.40
2019-03-23T01:49:17.179Z,23.20
2019-03-23T01:51:47.582Z,19.00
2019-03-23T01:54:17.834Z,19.60
2019-03-23T01:56:48.060Z,20.80
2019-03-23T01:59:18.766Z,19.00
2019-03-23T02:01:49.018Z,22.00
2019-03-23T02:04:19.205Z,18.80
2019-03-23T02:06:49.885Z,14.20
2019-03-23T02:09:19.963Z,12.00
2019-03-23T02:11:50.289Z,20.20
2019-03-23T02:14:20.403Z,23.20
2019-03-23T02:16:50.675Z,21.60
2019-03-23T02:19:21.150Z,26.80
2019-03-23T02:21:51.609Z,25.80
2019-03-23T02:24:22.011Z,29.60
2019-03-23T02:26:52.497Z,27.20
2019-03-23T02:29:22.612Z,29.80
2019-03-23T02:31:52.750Z,28.80
2019-03-23T02:34:23.038Z,30.60
2019-03-23T02:36:53.293Z,36.00
2019-03-23T02:39:23.706Z,30.20
2019-03-23T02:41:54.117Z,31.40
2019-03-23T02:44:24.663Z,31.60
2019-03-23T02:46:54.810Z,34.00
2019-03-23T02:49:25.572Z,35.60
2019-03-23T02:51:55.906Z,41.20
2019-03-23T02:54:26.111Z,33.60
2019-03-23T02:56:56.338Z,19.00
2019-03-23T02:59:26.766Z,42.20
2019-03-23T03:01:57.467Z,38.40
2019-03-23T03:04:27.587Z,38.00
2019-03-23T03:06:57.858Z,23.40
2019-03-23T03:09:28.328Z,42.20
2019-03-23T03:11:58.580Z,39.80
2019-03-23T03:14:29.042Z,37.00
2019-03-23T03:16:59.592Z,39.60
2019-03-23T03:19:29.949Z,37.00
2019-03-23T03:22:00.239Z,43.80
2019-03-23T03:24:30.632Z,29.80
2019-03-23T03:27:01.298Z,30.60
2019-03-23T03:29:32.407Z,41.60
2019-03-23T03:32:03.000Z,32.20
2019-03-23T03:34:33.381Z,44.60
2019-03-23T03:37:04.078Z,47.60
2019-03-23T03:39:34.317Z,33.60
2019-03-23T03:42:04.573Z,34.40
2019-03-23T03:44:34.882Z,41.20
2019-03-23T03:47:05.243Z,44.20
2019-03-23T03:49:35.537Z,36.00
2019-03-23T03:52:05.984Z,48.60
2019-03-23T03:54:36.824Z,25.20
2019-03-23T03:57:07.033Z,36.20
2019-03-23T03:59:37.389Z,45.20
2019-03-23T04:02:07.718Z,47.00
2019-03-23T04:04:38.103Z,43.60
2019-03-23T04:07:09.009Z,45.80
2019-03-23T04:09:40.507Z,45.20
2019-03-23T04:12:10.802Z,43.00
2019-03-23T04:14:41.179Z,42.20
2019-03-23T04:17:11.505Z,48.80
2019-03-23T04:19:42.030Z,47.00
2019-03-23T04:22:12.423Z,45.00
2019-03-23T04:24:42.767Z,47.20
2019-03-23T04:27:13.646Z,46.20
2019-03-23T04:29:44.418Z,38.20
2019-03-23T04:32:14.698Z,42.60
2019-03-23T04:34:45.360Z,48.20
2019-03-23T04:37:15.786Z,45.20
2019-03-23T04:39:46.287Z,38.20
2019-03-23T04:42:16.854Z,51.00
2019-03-23T04:44:47.436Z,48.40
2019-03-23T04:47:18.249Z,51.20
2019-03-23T04:49:48.519Z,50.00
2019-03-23T04:52:19.528Z,52.40
2019-03-23T04:54:51.022Z,49.20
2019-03-23T04:57:21.315Z,52.20
2019-03-23T04:59:51.775Z,46.60
2019-03-23T05:02:22.116Z,48.80
2019-03-23T05:04:52.487Z,34.20
2019-03-23T05:07:22.848Z,52.00
2019-03-23T05:09:53.148Z,49.20
2019-03-23T05:12:24.545Z,44.80
2019-03-23T05:14:55.468Z,46.40
2019-03-23T05:17:25.877Z,45.20
2019-03-23T05:19:57.004Z,54.00
2019-03-23T05:22:27.341Z,53.60
2019-03-23T05:24:57.599Z,47.00
2019-03-23T05:27:27.900Z,57.20
2019-03-23T05:29:58.279Z,48.20
2019-03-23T05:32:28.560Z,53.20
2019-03-23T05:34:58.822Z,53.20
2019-03-23T05:37:29.093Z,38.40
2019-03-23T05:39:59.563Z,46.40
2019-03-23T05:42:30.024Z,54.00
2019-03-23T05:45:00.411Z,48.40
2019-03-23T05:47:31.389Z,48.80
2019-03-23T05:50:01.855Z,53.40
2019-03-23T05:52:32.177Z,40.40
2019-03-23T05:55:02.660Z,49.80
2019-03-23T05:57:33.093Z,43.20
2019-03-23T06:00:03.726Z,55.00
2019-03-23T06:02:34.378Z,47.60
2019-03-23T06:05:05.150Z,51.60
2019-03-23T06:07:36.648Z,54.40
2019-03-23T06:10:07.259Z,52.40
2019-03-23T06:12:37.632Z,50.80
2019-03-23T06:15:08.184Z,52.00
2019-03-23T06:17:41.321Z,51.20
2019-03-23T06:20:12.045Z,53.20
2019-03-23T06:22:42.316Z,51.80
2019-03-23T06:25:12.789Z,54.20
2019-03-23T06:27:43.150Z,53.60
2019-03-23T06:30:13.714Z,43.80
2019-03-23T06:32:44.775Z,43.60
2019-03-23T06:35:15.310Z,54.40
2019-03-23T06:37:45.582Z,54.00
2019-03-23T06:40:16.103Z,49.00
2019-03-23T06:42:46.786Z,52.80
2019-03-23T06:45:17.251Z,37.80
2019-03-23T06:47:47.918Z,50.20
2019-03-23T06:50:18.342Z,45.20
2019-03-23T06:52:48.901Z,41.40
2019-03-23T06:55:19.260Z,43.40
2019-03-23T06:57:49.915Z,45.20
2019-03-23T07:00:21.124Z,49.00
2019-03-23T07:02:51.519Z,49.00
2019-03-23T07:05:22.147Z,46.20
2019-03-23T07:07:52.704Z,44.60
2019-03-23T07:10:23.171Z,29.80
2019-03-23T07:12:53.632Z,42.20
2019-03-23T07:15:24.012Z,48.40
2019-03-23T07:17:54.767Z,35.80
2019-03-23T07:20:25.316Z,46.40
2019-03-23T07:22:55.736Z,46.00
2019-03-23T07:25:26.170Z,45.20
2019-03-23T07:27:56.536Z,48.40
2019-03-23T07:30:27.238Z,44.00
2019-03-23T07:32:57.558Z,49.20
2019-03-23T07:35:27.865Z,43.60
2019-03-23T07:37:58.708Z,45.20
2019-03-23T07:40:29.133Z,39.40
2019-03-23T07:42:59.379Z,46.20
2019-03-23T07:45:30.257Z,29.40
2019-03-23T07:48:01.521Z,43.60
2019-03-23T07:50:32.313Z,47.60
2019-03-23T07:53:09.967Z,49.80
2019-03-23T07:55:40.102Z,46.00
2019-03-23T07:58:10.578Z,42.40
2019-03-23T08:00:41.142Z,44.80
2019-03-23T08:03:11.532Z,48.20
2019-03-23T08:05:42.026Z,49.40
2019-03-23T08:08:15.581Z,39.80
2019-03-23T08:10:46.777Z,45.40
2019-03-23T08:13:17.182Z,40.80
2019-03-23T08:15:47.674Z,47.00
2019-03-23T08:18:18.099Z,47.40
2019-03-23T08:20:49.778Z,37.80
2019-03-23T08:23:20.829Z,43.80
2019-03-23T08:25:51.329Z,48.80
2019-03-23T08:28:21.691Z,44.20
2019-03-23T08:30:52.162Z,45.40
2019-03-23T08:33:22.599Z,48.00
2019-03-23T08:35:53.106Z,42.60
2019-03-23T08:38:23.555Z,30.60
2019-03-23T08:40:57.045Z,45.60
2019-03-23T08:43:27.458Z,46.80
2019-03-23T08:45:57.975Z,45.20
2019-03-23T08:48:28.453Z,47.80
2019-03-23T08:50:58.996Z,49.00
2019-03-23T08:53:29.359Z,52.80
2019-03-23T08:55:59.650Z,18.60
2019-03-23T08:58:30.843Z,50.40
2019-03-23T09:01:02.151Z,46.60
2019-03-23T09:03:32.320Z,48.20
2019-03-23T09:06:02.636Z,50.80
2019-03-23T09:08:33.207Z,50.80
2019-03-23T09:11:03.913Z,46.80
2019-03-23T09:13:40.502Z,49.40
2019-03-23T09:16:06.684Z,54.00
2019-03-23T09:18:36.964Z,48.20
2019-03-23T09:21:07.596Z,50.40
2019-03-23T09:23:38.302Z,41.40
2019-03-23T09:26:13.626Z,39.40
2019-03-23T09:28:43.452Z,48.40
2019-03-23T09:31:13.805Z,49.60
2019-03-23T09:33:43.942Z,49.00
2019-03-23T09:36:14.558Z,49.00
2019-03-23T09:38:45.316Z,46.80
2019-03-23T09:41:15.587Z,51.60
2019-03-23T09:43:46.789Z,50.20
2019-03-23T09:46:17.100Z,48.80
2019-03-23T09:48:47.425Z,45.40
2019-03-23T09:51:20.812Z,41.00
2019-03-23T09:53:51.153Z,48.60
2019-03-23T09:56:21.250Z,44.20
2019-03-23T09:58:51.639Z,48.20
2019-03-23T10:01:22.157Z,37.60
2019-03-23T10:03:52.522Z,46.80
2019-03-23T10:06:22.753Z,32.00
2019-03-23T10:08:53.742Z,43.00
2019-03-23T10:11:24.058Z,50.00
2019-03-23T10:13:54.157Z,53.00
2019-03-23T10:16:24.563Z,52.80
2019-03-23T10:18:55.159Z,35.60
2019-03-23T10:21:25.275Z,45.60
2019-03-23T10:23:55.854Z,42.60
2019-03-23T10:26:29.493Z,48.00
2019-03-23T10:29:01.135Z,50.80
2019-03-23T10:31:31.996Z,41.80
2019-03-23T10:34:03.402Z,52.40
2019-03-23T10:36:33.577Z,42.80
2019-03-23T10:39:05.092Z,43.80
2019-03-23T10:41:35.514Z,45.60
2019-03-23T10:44:05.853Z,45.00
2019-03-23T10:46:36.402Z,54.20
2019-03-23T10:49:08.824Z,52.80
2019-03-23T10:51:44.709Z,51.60
2019-03-23T10:54:16.842Z,46.80
2019-03-23T10:56:47.159Z,48.40
2019-03-23T10:59:17.840Z,45.40
2019-03-23T11:01:48.159Z,37.60
2019-03-23T11:04:19.685Z,43.80
2019-03-23T11:06:49.943Z,47.60
2019-03-23T11:09:22.226Z,39.40
2019-03-23T11:11:53.290Z,41.20
2019-03-23T11:14:23.774Z,49.20
2019-03-23T11:16:55.018Z,50.80
2019-03-23T11:19:25.404Z,51.40
2019-03-23T11:21:55.526Z,48.80
2019-03-23T11:24:29.003Z,47.40
2019-03-23T11:26:59.791Z,41.80
2019-03-23T11:29:30.508Z,51.40
2019-03-23T11:32:00.563Z,52.20
2019-03-23T11:34:31.011Z,50.20
2019-03-23T11:37:01.487Z,47.20
2019-03-23T11:39:31.922Z,47.60
2019-03-23T11:42:03.747Z,40.40
2019-03-23T11:44:34.347Z,46.60
2019-03-23T11:47:05.137Z,45.20
2019-03-23T11:49:39.821Z,40.80
2019-03-23T11:52:12.203Z,51.80
2019-03-23T11:54:44.437Z,41.40
2019-03-23T11:57:15.223Z,54.80
2019-03-23T11:59:47.094Z,51.40
2019-03-23T12:02:17.453Z,50.60
2019-03-23T12:04:47.579Z,52.20
2019-03-23T12:07:18.344Z,54.00
2019-03-23T12:09:51.093Z,52.00
2019-03-23T12:12:21.529Z,44.60
2019-03-23T12:14:52.131Z,52.80
2019-03-23T12:17:26.968Z,48.40
2019-03-23T12:19:57.328Z,49.40
2019-03-23T12:22:27.927Z,50.60
2019-03-23T12:25:05.663Z,50.20
2019-03-23T12:27:38.344Z,53.80
2019-03-23T12:30:11.481Z,60.60
2019-03-23T12:32:42.484Z,51.40
2019-03-23T12:35:13.143Z,54.20
2019-03-23T12:37:44.141Z,47.80
2019-03-23T12:40:14.269Z,46.80
2019-03-23T12:42:45.721Z,38.60
2019-03-23T12:45:19.190Z,47.40
2019-03-23T12:47:49.982Z,48.60
2019-03-23T12:50:21.260Z,46.00
2019-03-23T12:52:52.683Z,46.60
2019-03-23T12:55:23.151Z,47.00
2019-03-23T12:57:53.673Z,42.20
2019-03-23T13:00:26.024Z,48.80
2019-03-23T13:02:56.684Z,48.80
2019-03-23T13:05:27.170Z,49.40
2019-03-23T13:07:58.340Z,47.80
2019-03-23T13:10:34.211Z,36.60
2019-03-23T13:13:17.703Z,39.60
2019-03-23T13:16:11.937Z,47.20
2019-03-23T13:18:43.103Z,45.80
2019-03-23T13:21:13.325Z,32.20
2019-03-23T13:23:46.691Z,38.80
2019-03-23T13:26:17.090Z,33.00
2019-03-23T13:28:47.922Z,42.00
2019-03-23T13:31:18.571Z,44.60
2019-03-23T13:33:48.961Z,46.00
2019-03-23T13:36:19.153Z,46.00
2019-03-23T13:38:49.937Z,47.00
2019-03-23T13:41:26.373Z,45.20
2019-03-23T13:43:56.480Z,36.80
2019-03-23T13:46:27.142Z,45.40
2019-03-23T13:48:57.500Z,43.80
2019-03-23T13:51:28.026Z,41.00
2019-03-23T13:53:59.196Z,41.20
2019-03-23T13:56:29.548Z,47.60
2019-03-23T13:58:59.662Z,41.20
2019-03-23T14:01:31.543Z,45.40
2019-03-23T14:04:01.637Z,38.40
2019-03-23T14:06:33.353Z,40.00
2019-03-23T14:09:05.692Z,43.60
2019-03-23T14:11:36.137Z,48.00
2019-03-23T14:14:09.359Z,39.80
2019-03-23T14:16:39.672Z,42.20
2019-03-23T14:19:11.709Z,39.60
2019-03-23T14:21:43.669Z,43.00
2019-03-23T14:24:13.799Z,42.60
2019-03-23T14:26:44.320Z,39.40
2019-03-23T14:29:14.387Z,45.00
2019-03-23T14:31:44.565Z,37.00
2019-03-23T14:34:15.174Z,36.80
2019-03-23T14:36:45.310Z,47.60
2019-03-23T14:39:15.693Z,49.00
2019-03-23T14:41:46.881Z,30.60
2019-03-23T14:44:19.276Z,45.00
2019-03-23T14:46:51.145Z,38.20
2019-03-23T14:49:22.411Z,38.20
2019-03-23T14:51:53.560Z,39.20
2019-03-23T14:54:24.205Z,35.80
2019-03-23T14:56:54.777Z,40.60
2019-03-23T14:59:29.660Z,39.60
2019-03-23T15:02:03.148Z,33.60
2019-03-23T15:04:34.105Z,40.00
2019-03-23T15:07:05.063Z,39.20
2019-03-23T15:09:35.778Z,46.00
2019-03-23T15:12:14.929Z,30.80
2019-03-23T15:14:44.496Z,22.80
2019-03-23T15:17:15.472Z,39.40
2019-03-23T15:19:46.140Z,37.00
2019-03-23T15:22:16.337Z,37.00
2019-03-23T15:24:47.151Z,38.20
2019-03-23T15:27:17.742Z,37.40
2019-03-23T15:29:48.284Z,36.80
2019-03-23T15:32:18.464Z,34.80
2019-03-23T15:34:48.529Z,38.20
2019-03-23T15:37:19.413Z,35.80
2019-03-23T15:39:50.156Z,37.20
2019-03-23T15:42:24.744Z,36.80
2019-03-23T15:44:53.076Z,35.60
2019-03-23T15:47:23.784Z,42.20
2019-03-23T15:49:54.150Z,26.00
2019-03-23T15:52:24.430Z,45.20
2019-03-23T15:54:55.343Z,39.60
2019-03-23T15:57:25.634Z,40.80
2019-03-23T15:59:55.813Z,39.00
2019-03-23T16:02:26.366Z,28.60
2019-03-23T16:04:58.761Z,41.20
2019-03-23T16:07:29.867Z,42.00
2019-03-23T16:10:00.410Z,33.00
2019-03-23T16:12:34.782Z,32.40
2019-03-23T16:15:05.305Z,39.60
2019-03-23T16:17:36.141Z,24.60
2019-03-23T16:20:09.576Z,42.00
2019-03-23T16:22:40.263Z,34.80
2019-03-23T16:25:10.648Z,36.60
2019-03-23T16:27:40.965Z,37.60
2019-03-23T16:30:11.928Z,35.80
2019-03-23T16:32:44.068Z,39.60
2019-03-23T16:35:14.687Z,36.40
2019-03-23T16:37:45.191Z,31.20
2019-03-23T16:40:17.016Z,37.00
2019-03-23T16:42:47.667Z,42.40
2019-03-23T16:45:18.153Z,33.60
2019-03-23T16:47:49.079Z,35.60
2019-03-23T16:50:19.599Z,45.00
2019-03-23T16:52:50.255Z,47.00
2019-03-23T16:55:23.127Z,40.00
2019-03-23T16:57:56.471Z,43.40
2019-03-23T17:00:35.666Z,39.20
2019-03-23T17:03:08.012Z,40.80
2019-03-23T17:05:39.087Z,40.40
2019-03-23T17:08:09.950Z,46.80
2019-03-23T17:10:40.204Z,33.60
2019-03-23T17:13:10.618Z,39.20
2019-03-23T17:15:41.490Z,42.20
2019-03-23T17:18:16.577Z,35.20
2019-03-23T17:20:48.267Z,41.60
2019-03-23T17:23:18.562Z,42.00
2019-03-23T17:25:48.951Z,34.00
2019-03-23T17:28:19.129Z,37.40
2019-03-23T17:30:52.601Z,42.40
2019-03-23T17:33:24.086Z,35.60
2019-03-23T17:35:56.710Z,36.00
2019-03-23T17:38:26.954Z,40.20
2019-03-23T17:40:58.180Z,34.20
2019-03-23T17:43:29.171Z,42.80
2019-03-23T17:45:59.423Z,45.20
2019-03-23T17:48:30.030Z,39.00
2019-03-23T17:51:00.086Z,42.40
2019-03-23T17:53:31.191Z,33.00
2019-03-23T17:56:01.900Z,26.20
2019-03-23T17:58:32.388Z,44.20
2019-03-23T18:01:05.618Z,38.40
2019-03-23T18:03:37.798Z,40.20
2019-03-23T18:06:08.144Z,40.80
2019-03-23T18:08:38.187Z,31.60
2019-03-23T18:11:09.105Z,40.20
2019-03-23T18:13:39.316Z,22.80
2019-03-23T18:16:20.022Z,39.60
2019-03-23T18:18:53.267Z,42.80
2019-03-23T18:21:24.111Z,37.00
2019-03-23T18:23:54.496Z,33.60
2019-03-23T18:26:25.440Z,40.00
2019-03-23T18:28:58.032Z,39.80
2019-03-23T18:31:28.840Z,45.20
2019-03-23T18:33:59.152Z,40.80
2019-03-23T18:36:29.948Z,34.40
2019-03-23T18:39:00.356Z,38.40
2019-03-23T18:41:30.767Z,34.00
2019-03-23T18:44:15.462Z,34.60
2019-03-23T18:46:37.316Z,45.20
2019-03-23T18:49:07.655Z,44.80
2019-03-23T18:51:38.431Z,45.00
2019-03-23T18:54:11.045Z,37.20
2019-03-23T18:56:41.740Z,31.40
2019-03-23T18:59:12.144Z,43.80
2019-03-23T19:01:42.312Z,43.20
2019-03-23T19:04:13.228Z,42.40
2019-03-23T19:06:43.446Z,29.00
2019-03-23T19:09:16.048Z,46.00
2019-03-23T19:11:47.023Z,45.80
2019-03-23T19:14:17.767Z,41.20
2019-03-23T19:16:50.109Z,37.60
2019-03-23T19:19:21.081Z,45.80
2019-03-23T19:21:52.087Z,48.00
2019-03-23T19:24:23.043Z,48.40
2019-03-23T19:26:55.585Z,36.00
2019-03-23T19:29:28.584Z,44.80
2019-03-23T19:32:01.893Z,45.00
2019-03-23T19:34:32.765Z,48.00
2019-03-23T19:37:06.355Z,44.00
2019-03-23T19:39:37.505Z,46.80
2019-03-23T19:42:08.026Z,47.20
2019-03-23T19:44:40.141Z,45.00
2019-03-23T19:47:10.564Z,41.40
2019-03-23T19:49:41.078Z,45.80
2019-03-23T19:52:12.192Z,45.80
2019-03-23T19:54:45.066Z,47.20
2019-03-23T19:57:15.339Z,44.80
2019-03-23T19:59:47.225Z,48.00
2019-03-23T20:02:17.357Z,37.00
2019-03-23T20:04:48.148Z,45.80
2019-03-23T20:07:19.383Z,45.20
2019-03-23T20:09:50.158Z,48.60
2019-03-23T20:12:21.738Z,49.00
2019-03-23T20:14:52.185Z,54.00
2019-03-23T20:17:22.696Z,44.00
2019-03-23T20:19:53.044Z,43.60
2019-03-23T20:22:23.543Z,47.00
2019-03-23T20:24:57.302Z,39.60
2019-03-23T20:27:27.670Z,46.20
2019-03-23T20:29:58.121Z,47.00
2019-03-23T20:32:29.050Z,45.20
2019-03-23T20:34:59.504Z,46.80
2019-03-23T20:37:31.677Z,50.40
2019-03-23T20:40:02.066Z,48.00
2019-03-23T20:42:32.932Z,49.80
2019-03-23T20:45:09.010Z,48.40
2019-03-23T20:47:40.495Z,45.20
2019-03-23T20:50:12.351Z,47.60
2019-03-23T20:52:43.032Z,40.60
2019-03-23T20:55:33.275Z,45.80
2019-03-23T20:58:03.471Z,43.00
2019-03-23T21:00:34.419Z,43.20
2019-03-23T21:03:05.012Z,45.20
2019-03-23T21:05:35.276Z,42.40
2019-03-23T21:08:05.516Z,41.00
2019-03-23T21:10:36.240Z,32.80
2019-03-23T21:13:06.968Z,47.00
2019-03-23T21:15:37.955Z,48.80
2019-03-23T21:18:08.705Z,44.60
2019-03-23T21:20:39.678Z,42.80
2019-03-23T21:23:10.077Z,42.60
2019-03-23T21:25:43.713Z,41.20
2019-03-23T21:28:15.313Z,41.40
2019-03-23T21:30:46.692Z,48.60
2019-03-23T21:33:20.767Z,48.60
2019-03-23T21:35:53.622Z,48.20
2019-03-23T21:38:24.136Z,32.40
2019-03-23T21:40:55.151Z,49.80
2019-03-23T21:43:27.606Z,41.40
2019-03-23T21:45:58.432Z,45.20
2019-03-23T21:48:32.392Z,39.60
2019-03-23T21:51:05.165Z,46.40
2019-03-23T21:53:35.674Z,49.00
2019-03-23T21:56:06.528Z,47.00
2019-03-23T21:58:37.367Z,46.20
2019-03-23T22:01:08.373Z,37.20
2019-03-23T22:03:38.984Z,28.60
2019-03-23T22:06:09.623Z,40.80
2019-03-23T22:08:40.168Z,41.80
2019-03-23T22:11:10.721Z,36.00
2019-03-23T22:13:41.274Z,36.80
2019-03-23T22:16:12.078Z,22.00
2019-03-23T22:18:44.399Z,36.60
2019-03-23T22:21:14.845Z,25.40
2019-03-23T22:23:45.750Z,31.80
2019-03-23T22:26:18.198Z,39.60
2019-03-23T22:28:49.037Z,38.40
2019-03-23T22:31:19.738Z,35.20
2019-03-23T22:33:50.605Z,32.80
2019-03-23T22:36:21.530Z,32.40
2019-03-23T22:38:51.848Z,30.60
2019-03-23T22:41:23.460Z,30.00
2019-03-23T22:43:53.863Z,34.60
2019-03-23T22:46:24.069Z,34.80
2019-03-23T22:48:54.368Z,30.80
2019-03-23T22:51:25.113Z,30.80
2019-03-23T22:53:55.787Z,22.60
2019-03-23T22:56:26.524Z,31.60
2019-03-23T22:58:57.361Z,29.20
2019-03-23T23:01:27.827Z,25.00
2019-03-23T23:03:58.382Z,18.40
2019-03-23T23:06:28.903Z,22.00
2019-03-23T23:08:59.326Z,24.00
2019-03-23T23:11:29.712Z,24.00
2019-03-23T23:14:00.066Z,26.20
2019-03-23T23:16:31.101Z,24.20
2019-03-23T23:19:01.667Z,22.20
2019-03-23T23:21:32.365Z,22.20
2019-03-23T23:24:03.173Z,22.00
2019-03-23T23:26:33.711Z,18.80
2019-03-23T23:29:04.116Z,17.40
2019-03-23T23:31:34.653Z,18.60
2019-03-23T23:34:05.118Z,13.80
2019-03-23T23:36:35.518Z,19.60
2019-03-23T23:39:07.665Z,16.80
2019-03-23T23:41:38.141Z,18.40
2019-03-23T23:44:08.662Z,20.60
2019-03-23T23:46:39.536Z,17.20
2019-03-23T23:49:10.083Z,18.80
2019-03-23T23:51:49.839Z,12.00
2019-03-23T23:54:13.095Z,14.80
2019-03-23T23:56:43.688Z,18.80
2019-03-23T23:59:13.968Z,18.00
